sensor_id;sensor_type;location;lat;lon;timestamp;temperature;humidity
68804;SHT31;55787;52.678;13.314;2023-12-20T00:01:02;6.71;99.99
68804;SHT31;55787;52.678;13.314;2023-12-20T00:03:29;6.73;99.99
68804;SHT31;55787;52.678;13.314;2023-12-20T00:06:07;6.69;99.99
68804;SHT31;55787;52.678;13.314;2023-12-20T00:08:34;6.71;99.99
68804;SHT31;55787;52.678;13.314;2023-12-20T00:11:00;6.71;99.99
68804;SHT31;55787;52.678;13.314;2023-12-20T00:13:27;6.72;99.99
68804;SHT31;55787;52.678;13.314;2023-12-20T00:15:53;6.71;99.99
68804;SHT31;55787;52.678;13.314;2023-12-20T00:18:20;6.72;99.99
68804;SHT31;55787;52.678;13.314;2023-12-20T00:20:47;6.68;99.99
68804;SHT31;55787;52.678;13.314;2023-12-20T00:23:13;6.72;99.99
68804;SHT31;55787;52.678;13.314;2023-12-20T00:25:40;6.68;99.99
68804;SHT31;55787;52.678;13.314;2023-12-20T00:28:06;6.68;99.99
68804;SHT31;55787;52.678;13.314;2023-12-20T00:30:33;6.65;99.99
68804;SHT31;55787;52.678;13.314;2023-12-20T00:33:00;6.68;99.99
68804;SHT31;55787;52.678;13.314;2023-12-20T00:35:27;6.69;99.99
68804;SHT31;55787;52.678;13.314;2023-12-20T00:37:53;6.64;99.99
68804;SHT31;55787;52.678;13.314;2023-12-20T00:40:20;6.65;99.99
68804;SHT31;55787;52.678;13.314;2023-12-20T00:42:47;6.71;99.99
68804;SHT31;55787;52.678;13.314;2023-12-20T00:45:14;6.75;99.99
68804;SHT31;55787;52.678;13.314;2023-12-20T00:47:41;6.69;99.99
68804;SHT31;55787;52.678;13.314;2023-12-20T00:50:08;6.67;99.99
68804;SHT31;55787;52.678;13.314;2023-12-20T00:52:36;6.69;99.99
68804;SHT31;55787;52.678;13.314;2023-12-20T00:55:03;6.73;99.99
68804;SHT31;55787;52.678;13.314;2023-12-20T00:57:30;6.69;99.99
68804;SHT31;55787;52.678;13.314;2023-12-20T00:59:58;6.67;99.99
68804;SHT31;55787;52.678;13.314;2023-12-20T01:02:24;6.69;99.99
68804;SHT31;55787;52.678;13.314;2023-12-20T01:04:51;6.71;99.99
68804;SHT31;55787;52.678;13.314;2023-12-20T01:07:18;6.72;99.99
68804;SHT31;55787;52.678;13.314;2023-12-20T01:09:45;6.69;99.99
68804;SHT31;55787;52.678;13.314;2023-12-20T01:12:12;6.72;99.99
68804;SHT31;55787;52.678;13.314;2023-12-20T01:14:38;6.72;99.99
68804;SHT31;55787;52.678;13.314;2023-12-20T01:17:06;6.79;99.99
68804;SHT31;55787;52.678;13.314;2023-12-20T01:19:33;6.76;99.99
68804;SHT31;55787;52.678;13.314;2023-12-20T01:21:59;6.71;99.99
68804;SHT31;55787;52.678;13.314;2023-12-20T01:24:26;6.73;99.99
68804;SHT31;55787;52.678;13.314;2023-12-20T01:26:53;6.71;99.99
68804;SHT31;55787;52.678;13.314;2023-12-20T01:29:19;6.75;99.99
68804;SHT31;55787;52.678;13.314;2023-12-20T01:31:46;6.75;99.99
68804;SHT31;55787;52.678;13.314;2023-12-20T01:34:13;6.71;99.99
68804;SHT31;55787;52.678;13.314;2023-12-20T01:36:40;6.76;99.99
68804;SHT31;55787;52.678;13.314;2023-12-20T01:39:06;6.72;99.99
68804;SHT31;55787;52.678;13.314;2023-12-20T01:41:50;6.71;99.99
68804;SHT31;55787;52.678;13.314;2023-12-20T01:44:17;6.68;99.99
68804;SHT31;55787;52.678;13.314;2023-12-20T01:46:43;6.64;99.99
68804;SHT31;55787;52.678;13.314;2023-12-20T01:49:10;6.69;99.99
68804;SHT31;55787;52.678;13.314;2023-12-20T01:51:37;6.64;99.99
68804;SHT31;55787;52.678;13.314;2023-12-20T01:54:04;6.65;99.99
68804;SHT31;55787;52.678;13.314;2023-12-20T01:56:31;6.62;99.99
68804;SHT31;55787;52.678;13.314;2023-12-20T01:58:58;6.67;99.99
68804;SHT31;55787;52.678;13.314;2023-12-20T02:01:27;6.65;99.99
68804;SHT31;55787;52.678;13.314;2023-12-20T02:03:55;6.65;99.99
68804;SHT31;55787;52.678;13.314;2023-12-20T02:06:23;6.59;99.99
68804;SHT31;55787;52.678;13.314;2023-12-20T02:08:51;6.61;99.99
68804;SHT31;55787;52.678;13.314;2023-12-20T02:11:17;6.56;99.99
68804;SHT31;55787;52.678;13.314;2023-12-20T02:13:44;6.55;99.99
68804;SHT31;55787;52.678;13.314;2023-12-20T02:16:11;6.54;99.99
68804;SHT31;55787;52.678;13.314;2023-12-20T02:18:37;6.49;99.99
68804;SHT31;55787;52.678;13.314;2023-12-20T02:21:05;6.52;99.99
68804;SHT31;55787;52.678;13.314;2023-12-20T02:23:32;6.56;99.99
68804;SHT31;55787;52.678;13.314;2023-12-20T02:25:59;6.51;99.99
68804;SHT31;55787;52.678;13.314;2023-12-20T02:28:26;6.54;99.99
68804;SHT31;55787;52.678;13.314;2023-12-20T02:30:53;6.52;99.99
68804;SHT31;55787;52.678;13.314;2023-12-20T02:33:20;6.54;99.99
68804;SHT31;55787;52.678;13.314;2023-12-20T02:35:46;6.45;99.99
68804;SHT31;55787;52.678;13.314;2023-12-20T02:38:14;6.41;99.99
68804;SHT31;55787;52.678;13.314;2023-12-20T02:40:40;6.32;99.99
68804;SHT31;55787;52.678;13.314;2023-12-20T02:43:14;6.31;99.99
68804;SHT31;55787;52.678;13.314;2023-12-20T02:45:41;6.31;99.99
68804;SHT31;55787;52.678;13.314;2023-12-20T02:48:08;6.31;99.99
68804;SHT31;55787;52.678;13.314;2023-12-20T02:50:35;6.30;99.99
68804;SHT31;55787;52.678;13.314;2023-12-20T02:53:01;6.17;99.99
68804;SHT31;55787;52.678;13.314;2023-12-20T02:55:28;6.10;99.99
68804;SHT31;55787;52.678;13.314;2023-12-20T02:57:55;6.11;99.99
68804;SHT31;55787;52.678;13.314;2023-12-20T03:00:21;6.06;99.99
68804;SHT31;55787;52.678;13.314;2023-12-20T03:02:48;5.96;99.99
68804;SHT31;55787;52.678;13.314;2023-12-20T03:05:14;5.93;99.99
68804;SHT31;55787;52.678;13.314;2023-12-20T03:07:41;5.90;99.99
68804;SHT31;55787;52.678;13.314;2023-12-20T03:10:08;5.85;99.99
68804;SHT31;55787;52.678;13.314;2023-12-20T03:12:45;5.77;99.99
68804;SHT31;55787;52.678;13.314;2023-12-20T03:15:12;5.77;99.99
68804;SHT31;55787;52.678;13.314;2023-12-20T03:17:39;5.69;99.99
68804;SHT31;55787;52.678;13.314;2023-12-20T03:20:07;5.70;99.99
68804;SHT31;55787;52.678;13.314;2023-12-20T03:22:34;5.67;99.99
68804;SHT31;55787;52.678;13.314;2023-12-20T03:25:01;5.63;99.99
68804;SHT31;55787;52.678;13.314;2023-12-20T03:27:28;5.60;99.99
68804;SHT31;55787;52.678;13.314;2023-12-20T03:29:55;5.59;99.99
68804;SHT31;55787;52.678;13.314;2023-12-20T03:32:21;5.55;99.99
68804;SHT31;55787;52.678;13.314;2023-12-20T03:34:48;5.45;99.99
68804;SHT31;55787;52.678;13.314;2023-12-20T03:37:15;5.46;99.99
68804;SHT31;55787;52.678;13.314;2023-12-20T03:39:42;5.51;99.99
68804;SHT31;55787;52.678;13.314;2023-12-20T03:42:08;5.46;99.99
68804;SHT31;55787;52.678;13.314;2023-12-20T03:44:38;5.48;99.99
68804;SHT31;55787;52.678;13.314;2023-12-20T03:47:05;5.53;99.99
68804;SHT31;55787;52.678;13.314;2023-12-20T03:49:32;5.53;99.99
68804;SHT31;55787;52.678;13.314;2023-12-20T03:51:59;5.60;99.99
68804;SHT31;55787;52.678;13.314;2023-12-20T03:54:26;5.62;99.99
68804;SHT31;55787;52.678;13.314;2023-12-20T03:56:52;5.60;99.99
68804;SHT31;55787;52.678;13.314;2023-12-20T03:59:19;5.56;99.99
68804;SHT31;55787;52.678;13.314;2023-12-20T04:01:46;5.59;99.99
68804;SHT31;55787;52.678;13.314;2023-12-20T04:04:13;5.58;99.99
68804;SHT31;55787;52.678;13.314;2023-12-20T04:06:40;5.56;99.99
68804;SHT31;55787;52.678;13.314;2023-12-20T04:09:06;5.59;99.99
68804;SHT31;55787;52.678;13.314;2023-12-20T04:11:36;5.53;99.99
68804;SHT31;55787;52.678;13.314;2023-12-20T04:14:03;5.55;99.99
68804;SHT31;55787;52.678;13.314;2023-12-20T04:16:31;5.51;99.99
68804;SHT31;55787;52.678;13.314;2023-12-20T04:18:58;5.49;99.99
68804;SHT31;55787;52.678;13.314;2023-12-20T04:21:25;5.43;99.99
68804;SHT31;55787;52.678;13.314;2023-12-20T04:23:51;5.35;99.99
68804;SHT31;55787;52.678;13.314;2023-12-20T04:26:18;5.32;99.99
68804;SHT31;55787;52.678;13.314;2023-12-20T04:28:44;5.30;99.99
68804;SHT31;55787;52.678;13.314;2023-12-20T04:31:11;5.34;99.99
68804;SHT31;55787;52.678;13.314;2023-12-20T04:33:38;5.36;99.99
68804;SHT31;55787;52.678;13.314;2023-12-20T04:36:05;5.35;99.99
68804;SHT31;55787;52.678;13.314;2023-12-20T04:38:31;5.28;99.99
68804;SHT31;55787;52.678;13.314;2023-12-20T04:40:58;5.24;99.99
68804;SHT31;55787;52.678;13.314;2023-12-20T04:43:25;5.25;99.99
68804;SHT31;55787;52.678;13.314;2023-12-20T04:45:51;5.24;99.99
68804;SHT31;55787;52.678;13.314;2023-12-20T04:48:18;5.24;99.99
68804;SHT31;55787;52.678;13.314;2023-12-20T04:50:45;5.17;99.99
68804;SHT31;55787;52.678;13.314;2023-12-20T04:53:12;5.15;99.99
68804;SHT31;55787;52.678;13.314;2023-12-20T04:55:38;5.12;99.99
68804;SHT31;55787;52.678;13.314;2023-12-20T04:58:05;5.07;99.99
68804;SHT31;55787;52.678;13.314;2023-12-20T05:00:32;4.95;99.99
68804;SHT31;55787;52.678;13.314;2023-12-20T05:02:59;4.87;99.99
68804;SHT31;55787;52.678;13.314;2023-12-20T05:05:26;4.81;99.99
68804;SHT31;55787;52.678;13.314;2023-12-20T05:07:53;4.71;99.99
68804;SHT31;55787;52.678;13.314;2023-12-20T05:10:19;4.63;99.99
68804;SHT31;55787;52.678;13.314;2023-12-20T05:12:46;4.63;99.99
68804;SHT31;55787;52.678;13.314;2023-12-20T05:15:13;4.60;99.99
68804;SHT31;55787;52.678;13.314;2023-12-20T05:17:39;4.49;99.99
68804;SHT31;55787;52.678;13.314;2023-12-20T05:20:07;4.45;99.99
68804;SHT31;55787;52.678;13.314;2023-12-20T05:22:34;4.38;99.99
68804;SHT31;55787;52.678;13.314;2023-12-20T05:25:01;4.39;99.99
68804;SHT31;55787;52.678;13.314;2023-12-20T05:27:28;4.33;99.99
68804;SHT31;55787;52.678;13.314;2023-12-20T05:29:54;4.31;99.99
68804;SHT31;55787;52.678;13.314;2023-12-20T05:32:24;4.28;99.99
68804;SHT31;55787;52.678;13.314;2023-12-20T05:34:51;4.28;99.99
68804;SHT31;55787;52.678;13.314;2023-12-20T05:37:18;4.29;99.99
68804;SHT31;55787;52.678;13.314;2023-12-20T05:39:45;4.21;99.99
68804;SHT31;55787;52.678;13.314;2023-12-20T05:42:12;4.19;99.99
68804;SHT31;55787;52.678;13.314;2023-12-20T05:44:38;4.18;99.99
68804;SHT31;55787;52.678;13.314;2023-12-20T05:47:05;4.21;99.99
68804;SHT31;55787;52.678;13.314;2023-12-20T05:49:32;4.26;99.99
68804;SHT31;55787;52.678;13.314;2023-12-20T05:51:58;4.33;99.99
68804;SHT31;55787;52.678;13.314;2023-12-20T05:54:25;4.38;99.99
68804;SHT31;55787;52.678;13.314;2023-12-20T05:56:51;4.42;99.99
68804;SHT31;55787;52.678;13.314;2023-12-20T05:59:18;4.46;99.99
68804;SHT31;55787;52.678;13.314;2023-12-20T06:01:45;4.45;99.99
68804;SHT31;55787;52.678;13.314;2023-12-20T06:04:11;4.46;99.99
68804;SHT31;55787;52.678;13.314;2023-12-20T06:06:42;4.42;99.99
68804;SHT31;55787;52.678;13.314;2023-12-20T06:09:09;4.43;99.99
68804;SHT31;55787;52.678;13.314;2023-12-20T06:11:36;4.39;99.99
68804;SHT31;55787;52.678;13.314;2023-12-20T06:14:03;4.33;99.99
68804;SHT31;55787;52.678;13.314;2023-12-20T06:16:30;4.35;99.99
68804;SHT31;55787;52.678;13.314;2023-12-20T06:18:56;4.31;99.99
68804;SHT31;55787;52.678;13.314;2023-12-20T06:21:23;4.38;99.99
68804;SHT31;55787;52.678;13.314;2023-12-20T06:23:50;4.40;99.99
68804;SHT31;55787;52.678;13.314;2023-12-20T06:26:17;4.42;99.99
68804;SHT31;55787;52.678;13.314;2023-12-20T06:28:43;4.43;99.99
68804;SHT31;55787;52.678;13.314;2023-12-20T06:31:10;4.45;99.99
68804;SHT31;55787;52.678;13.314;2023-12-20T06:33:37;4.54;99.99
68804;SHT31;55787;52.678;13.314;2023-12-20T06:36:07;4.54;99.79
68804;SHT31;55787;52.678;13.314;2023-12-20T06:38:33;4.52;99.99
68804;SHT31;55787;52.678;13.314;2023-12-20T06:41:00;4.49;99.99
68804;SHT31;55787;52.678;13.314;2023-12-20T06:43:26;4.49;99.99
68804;SHT31;55787;52.678;13.314;2023-12-20T06:46:11;4.48;99.99
68804;SHT31;55787;52.678;13.314;2023-12-20T06:48:39;4.54;99.98
68804;SHT31;55787;52.678;13.314;2023-12-20T06:51:12;4.56;99.99
68804;SHT31;55787;52.678;13.314;2023-12-20T06:53:38;4.59;99.62
68804;SHT31;55787;52.678;13.314;2023-12-20T06:56:05;4.60;99.83
68804;SHT31;55787;52.678;13.314;2023-12-20T06:58:32;4.63;99.89
68804;SHT31;55787;52.678;13.314;2023-12-20T07:00:58;4.63;99.76
68804;SHT31;55787;52.678;13.314;2023-12-20T07:03:25;4.64;99.46
68804;SHT31;55787;52.678;13.314;2023-12-20T07:05:51;4.69;99.18
68804;SHT31;55787;52.678;13.314;2023-12-20T07:08:18;4.70;99.86
68804;SHT31;55787;52.678;13.314;2023-12-20T07:10:45;4.69;99.62
68804;SHT31;55787;52.678;13.314;2023-12-20T07:13:12;4.67;99.71
68804;SHT31;55787;52.678;13.314;2023-12-20T07:15:40;4.73;99.35
68804;SHT31;55787;52.678;13.314;2023-12-20T07:18:06;4.70;99.54
68804;SHT31;55787;52.678;13.314;2023-12-20T07:20:34;4.70;99.49
68804;SHT31;55787;52.678;13.314;2023-12-20T07:23:00;4.70;99.56
68804;SHT31;55787;52.678;13.314;2023-12-20T07:25:27;4.80;99.46
68804;SHT31;55787;52.678;13.314;2023-12-20T07:27:54;4.80;99.35
68804;SHT31;55787;52.678;13.314;2023-12-20T07:30:21;4.80;99.37
68804;SHT31;55787;52.678;13.314;2023-12-20T07:32:47;4.77;99.47
68804;SHT31;55787;52.678;13.314;2023-12-20T07:35:16;4.77;99.46
68804;SHT31;55787;52.678;13.314;2023-12-20T07:37:43;4.79;99.04
68804;SHT31;55787;52.678;13.314;2023-12-20T07:40:11;4.79;99.26
68804;SHT31;55787;52.678;13.314;2023-12-20T07:42:38;4.84;98.97
68804;SHT31;55787;52.678;13.314;2023-12-20T07:45:05;4.87;98.98
68804;SHT31;55787;52.678;13.314;2023-12-20T07:47:31;4.90;98.95
68804;SHT31;55787;52.678;13.314;2023-12-20T07:49:58;4.90;99.12
68804;SHT31;55787;52.678;13.314;2023-12-20T07:52:25;4.91;98.70
68804;SHT31;55787;52.678;13.314;2023-12-20T07:54:52;4.90;98.77
68804;SHT31;55787;52.678;13.314;2023-12-20T07:57:19;4.94;99.02
68804;SHT31;55787;52.678;13.314;2023-12-20T07:59:45;5.00;99.04
68804;SHT31;55787;52.678;13.314;2023-12-20T08:02:12;5.02;98.66
68804;SHT31;55787;52.678;13.314;2023-12-20T08:04:39;4.95;98.56
68804;SHT31;55787;52.678;13.314;2023-12-20T08:07:06;5.01;98.68
68804;SHT31;55787;52.678;13.314;2023-12-20T08:09:33;4.95;98.41
68804;SHT31;55787;52.678;13.314;2023-12-20T08:12:00;5.05;97.71
68804;SHT31;55787;52.678;13.314;2023-12-20T08:14:27;5.08;97.78
68804;SHT31;55787;52.678;13.314;2023-12-20T08:16:54;5.05;97.93
68804;SHT31;55787;52.678;13.314;2023-12-20T08:19:20;5.11;97.93
68804;SHT31;55787;52.678;13.314;2023-12-20T08:21:47;5.12;97.88
68804;SHT31;55787;52.678;13.314;2023-12-20T08:24:14;5.08;97.63
68804;SHT31;55787;52.678;13.314;2023-12-20T08:26:40;5.10;97.46
68804;SHT31;55787;52.678;13.314;2023-12-20T08:29:07;5.12;97.32
68804;SHT31;55787;52.678;13.314;2023-12-20T08:31:33;5.15;97.59
68804;SHT31;55787;52.678;13.314;2023-12-20T08:34:00;5.12;97.12
68804;SHT31;55787;52.678;13.314;2023-12-20T08:36:27;5.17;97.34
68804;SHT31;55787;52.678;13.314;2023-12-20T08:38:54;5.20;97.29
68804;SHT31;55787;52.678;13.314;2023-12-20T08:41:21;5.21;96.94
68804;SHT31;55787;52.678;13.314;2023-12-20T08:43:48;5.27;97.02
68804;SHT31;55787;52.678;13.314;2023-12-20T08:46:15;5.38;96.58
68804;SHT31;55787;52.678;13.314;2023-12-20T08:48:42;5.42;96.37
68804;SHT31;55787;52.678;13.314;2023-12-20T08:51:10;5.51;96.06
68804;SHT31;55787;52.678;13.314;2023-12-20T08:53:36;5.46;95.52
68804;SHT31;55787;52.678;13.314;2023-12-20T08:56:03;5.48;95.87
68804;SHT31;55787;52.678;13.314;2023-12-20T08:58:30;5.46;96.13
68804;SHT31;55787;52.678;13.314;2023-12-20T09:00:57;5.52;96.40
68804;SHT31;55787;52.678;13.314;2023-12-20T09:03:24;5.60;95.22
68804;SHT31;55787;52.678;13.314;2023-12-20T09:05:51;5.72;95.13
68804;SHT31;55787;52.678;13.314;2023-12-20T09:08:18;5.80;94.67
68804;SHT31;55787;52.678;13.314;2023-12-20T09:10:44;5.93;93.84
68804;SHT31;55787;52.678;13.314;2023-12-20T09:13:11;5.87;93.72
68804;SHT31;55787;52.678;13.314;2023-12-20T09:15:38;5.73;93.86
68804;SHT31;55787;52.678;13.314;2023-12-20T09:18:05;5.74;94.65
68804;SHT31;55787;52.678;13.314;2023-12-20T09:20:32;5.74;94.46
68804;SHT31;55787;52.678;13.314;2023-12-20T09:22:59;5.65;94.90
68804;SHT31;55787;52.678;13.314;2023-12-20T09:25:26;5.69;95.08
68804;SHT31;55787;52.678;13.314;2023-12-20T09:27:53;5.70;95.39
68804;SHT31;55787;52.678;13.314;2023-12-20T09:30:20;5.58;95.78
68804;SHT31;55787;52.678;13.314;2023-12-20T09:32:54;5.60;96.03
68804;SHT31;55787;52.678;13.314;2023-12-20T09:35:21;5.60;95.64
68804;SHT31;55787;52.678;13.314;2023-12-20T09:37:49;5.66;95.63
68804;SHT31;55787;52.678;13.314;2023-12-20T09:40:19;5.69;95.37
68804;SHT31;55787;52.678;13.314;2023-12-20T09:43:03;5.69;95.75
68804;SHT31;55787;52.678;13.314;2023-12-20T09:45:31;5.74;95.70
68804;SHT31;55787;52.678;13.314;2023-12-20T09:47:58;5.73;95.11
68804;SHT31;55787;52.678;13.314;2023-12-20T09:50:25;5.76;95.49
68804;SHT31;55787;52.678;13.314;2023-12-20T09:52:53;5.74;95.12
68804;SHT31;55787;52.678;13.314;2023-12-20T09:55:20;5.77;94.63
68804;SHT31;55787;52.678;13.314;2023-12-20T09:57:48;5.76;94.53
68804;SHT31;55787;52.678;13.314;2023-12-20T10:00:16;5.74;94.59
68804;SHT31;55787;52.678;13.314;2023-12-20T10:02:57;5.69;95.27
68804;SHT31;55787;52.678;13.314;2023-12-20T10:05:29;5.67;94.83
68804;SHT31;55787;52.678;13.314;2023-12-20T10:07:57;5.74;95.52
68804;SHT31;55787;52.678;13.314;2023-12-20T10:10:23;5.72;95.26
68804;SHT31;55787;52.678;13.314;2023-12-20T10:13:12;5.69;95.02
68804;SHT31;55787;52.678;13.314;2023-12-20T10:15:40;5.80;95.57
68804;SHT31;55787;52.678;13.314;2023-12-20T10:18:08;5.89;94.70
68804;SHT31;55787;52.678;13.314;2023-12-20T10:20:35;5.87;94.67
68804;SHT31;55787;52.678;13.314;2023-12-20T10:23:02;5.94;94.64
68804;SHT31;55787;52.678;13.314;2023-12-20T10:25:29;5.93;93.91
68804;SHT31;55787;52.678;13.314;2023-12-20T10:28:12;5.94;93.77
68804;SHT31;55787;52.678;13.314;2023-12-20T10:30:40;5.97;93.67
68804;SHT31;55787;52.678;13.314;2023-12-20T10:33:08;6.00;94.25
68804;SHT31;55787;52.678;13.314;2023-12-20T10:35:38;6.10;94.08
68804;SHT31;55787;52.678;13.314;2023-12-20T10:38:08;6.04;93.43
68804;SHT31;55787;52.678;13.314;2023-12-20T10:40:36;6.02;93.98
68804;SHT31;55787;52.678;13.314;2023-12-20T10:43:04;6.06;93.81
68804;SHT31;55787;52.678;13.314;2023-12-20T10:45:31;6.00;93.71
68804;SHT31;55787;52.678;13.314;2023-12-20T10:47:59;5.96;93.91
68804;SHT31;55787;52.678;13.314;2023-12-20T10:50:27;5.80;94.45
68804;SHT31;55787;52.678;13.314;2023-12-20T10:52:55;5.77;94.90
68804;SHT31;55787;52.678;13.314;2023-12-20T10:55:23;5.73;95.02
68804;SHT31;55787;52.678;13.314;2023-12-20T10:57:51;5.73;95.15
68804;SHT31;55787;52.678;13.314;2023-12-20T11:00:18;5.80;95.30
68804;SHT31;55787;52.678;13.314;2023-12-20T11:02:45;5.94;94.95
68804;SHT31;55787;52.678;13.314;2023-12-20T11:07:52;5.92;94.08
68804;SHT31;55787;52.678;13.314;2023-12-20T11:10:28;6.02;93.64
68804;SHT31;55787;52.678;13.314;2023-12-20T11:13:10;5.99;93.98
68804;SHT31;55787;52.678;13.314;2023-12-20T11:15:39;6.02;94.13
68804;SHT31;55787;52.678;13.314;2023-12-20T11:18:06;6.02;94.28
68804;SHT31;55787;52.678;13.314;2023-12-20T11:20:37;6.04;94.23
68804;SHT31;55787;52.678;13.314;2023-12-20T11:23:06;6.06;94.46
68804;SHT31;55787;52.678;13.314;2023-12-20T11:25:51;6.06;95.45
68804;SHT31;55787;52.678;13.314;2023-12-20T11:28:21;5.97;95.10
68804;SHT31;55787;52.678;13.314;2023-12-20T11:30:56;5.90;94.65
68804;SHT31;55787;52.678;13.314;2023-12-20T11:33:25;5.92;95.31
68804;SHT31;55787;52.678;13.314;2023-12-20T11:35:56;5.87;95.40
68804;SHT31;55787;52.678;13.314;2023-12-20T11:38:24;5.85;95.47
68804;SHT31;55787;52.678;13.314;2023-12-20T11:40:53;5.92;95.09
68804;SHT31;55787;52.678;13.314;2023-12-20T11:43:36;5.86;95.00
68804;SHT31;55787;52.678;13.314;2023-12-20T11:46:05;5.86;95.20
68804;SHT31;55787;52.678;13.314;2023-12-20T11:48:34;5.92;95.28
68804;SHT31;55787;52.678;13.314;2023-12-20T11:51:01;5.92;95.06
68804;SHT31;55787;52.678;13.314;2023-12-20T11:53:30;5.97;94.96
68804;SHT31;55787;52.678;13.314;2023-12-20T11:55:58;5.99;94.41
68804;SHT31;55787;52.678;13.314;2023-12-20T11:58:25;5.99;95.15
68804;SHT31;55787;52.678;13.314;2023-12-20T12:00:52;6.03;94.82
68804;SHT31;55787;52.678;13.314;2023-12-20T12:03:19;6.03;94.64
68804;SHT31;55787;52.678;13.314;2023-12-20T12:05:47;6.04;94.21
68804;SHT31;55787;52.678;13.314;2023-12-20T12:08:14;6.13;93.40
68804;SHT31;55787;52.678;13.314;2023-12-20T12:10:41;6.09;93.84
68804;SHT31;55787;52.678;13.314;2023-12-20T12:13:07;6.11;94.07
68804;SHT31;55787;52.678;13.314;2023-12-20T12:15:35;6.04;94.38
68804;SHT31;55787;52.678;13.314;2023-12-20T12:18:02;6.03;94.86
68804;SHT31;55787;52.678;13.314;2023-12-20T12:20:28;5.99;95.71
68804;SHT31;55787;52.678;13.314;2023-12-20T12:23:04;5.93;95.97
68804;SHT31;55787;52.678;13.314;2023-12-20T12:25:32;5.87;96.55
68804;SHT31;55787;52.678;13.314;2023-12-20T12:27:59;5.87;96.94
68804;SHT31;55787;52.678;13.314;2023-12-20T12:30:26;5.82;97.31
68804;SHT31;55787;52.678;13.314;2023-12-20T12:32:58;5.80;97.82
68804;SHT31;55787;52.678;13.314;2023-12-20T12:35:25;5.79;97.40
68804;SHT31;55787;52.678;13.314;2023-12-20T12:37:51;5.73;97.33
68804;SHT31;55787;52.678;13.314;2023-12-20T12:40:18;5.67;97.56
68804;SHT31;55787;52.678;13.314;2023-12-20T12:42:46;5.67;97.86
68804;SHT31;55787;52.678;13.314;2023-12-20T12:45:13;5.70;97.49
68804;SHT31;55787;52.678;13.314;2023-12-20T12:47:40;5.67;97.84
68804;SHT31;55787;52.678;13.314;2023-12-20T12:50:07;5.70;98.16
68804;SHT31;55787;52.678;13.314;2023-12-20T12:52:35;5.63;98.53
68804;SHT31;55787;52.678;13.314;2023-12-20T12:55:02;5.65;98.75
68804;SHT31;55787;52.678;13.314;2023-12-20T12:57:31;5.69;99.03
68804;SHT31;55787;52.678;13.314;2023-12-20T12:59:58;5.67;99.09
68804;SHT31;55787;52.678;13.314;2023-12-20T13:02:25;5.63;99.41
68804;SHT31;55787;52.678;13.314;2023-12-20T13:04:52;5.63;99.71
68804;SHT31;55787;52.678;13.314;2023-12-20T13:07:19;5.65;99.55
68804;SHT31;55787;52.678;13.314;2023-12-20T13:09:46;5.62;99.30
68804;SHT31;55787;52.678;13.314;2023-12-20T13:12:13;5.55;99.40
68804;SHT31;55787;52.678;13.314;2023-12-20T13:14:40;5.53;99.34
68804;SHT31;55787;52.678;13.314;2023-12-20T13:17:07;5.48;99.24
68804;SHT31;55787;52.678;13.314;2023-12-20T13:19:34;5.36;98.78
68804;SHT31;55787;52.678;13.314;2023-12-20T13:22:00;5.31;98.73
68804;SHT31;55787;52.678;13.314;2023-12-20T13:24:27;5.36;99.22
68804;SHT31;55787;52.678;13.314;2023-12-20T13:26:55;5.34;98.98
68804;SHT31;55787;52.678;13.314;2023-12-20T13:29:21;5.32;99.14
68804;SHT31;55787;52.678;13.314;2023-12-20T13:31:49;5.39;99.02
68804;SHT31;55787;52.678;13.314;2023-12-20T13:34:16;5.34;98.99
68804;SHT31;55787;52.678;13.314;2023-12-20T13:36:44;5.35;99.24
68804;SHT31;55787;52.678;13.314;2023-12-20T13:39:14;5.34;98.30
68804;SHT31;55787;52.678;13.314;2023-12-20T13:41:40;5.45;97.91
68804;SHT31;55787;52.678;13.314;2023-12-20T13:44:07;5.56;97.59
68804;SHT31;55787;52.678;13.314;2023-12-20T13:46:34;5.46;97.20
68804;SHT31;55787;52.678;13.314;2023-12-20T13:49:00;5.45;97.45
68804;SHT31;55787;52.678;13.314;2023-12-20T13:51:28;5.31;96.88
68804;SHT31;55787;52.678;13.314;2023-12-20T13:53:55;5.35;97.18
68804;SHT31;55787;52.678;13.314;2023-12-20T13:56:21;5.31;97.16
68804;SHT31;55787;52.678;13.314;2023-12-20T13:58:49;5.31;97.03
68804;SHT31;55787;52.678;13.314;2023-12-20T14:01:17;5.10;96.84
68804;SHT31;55787;52.678;13.314;2023-12-20T14:03:44;5.05;96.89
68804;SHT31;55787;52.678;13.314;2023-12-20T14:06:11;5.01;97.05
68804;SHT31;55787;52.678;13.314;2023-12-20T14:08:37;4.94;96.57
68804;SHT31;55787;52.678;13.314;2023-12-20T14:11:04;4.95;96.97
68804;SHT31;55787;52.678;13.314;2023-12-20T14:13:31;4.88;95.68
68804;SHT31;55787;52.678;13.314;2023-12-20T14:15:58;4.88;96.79
68804;SHT31;55787;52.678;13.314;2023-12-20T14:18:27;4.84;96.89
68804;SHT31;55787;52.678;13.314;2023-12-20T14:20:53;4.83;96.92
68804;SHT31;55787;52.678;13.314;2023-12-20T14:23:21;4.74;96.51
68804;SHT31;55787;52.678;13.314;2023-12-20T14:25:49;4.77;96.74
68804;SHT31;55787;52.678;13.314;2023-12-20T14:28:19;4.71;96.54
68804;SHT31;55787;52.678;13.314;2023-12-20T14:30:45;4.69;97.24
68804;SHT31;55787;52.678;13.314;2023-12-20T14:33:12;4.67;95.79
68804;SHT31;55787;52.678;13.314;2023-12-20T14:35:40;4.73;96.20
68804;SHT31;55787;52.678;13.314;2023-12-20T14:38:11;4.67;96.33
68804;SHT31;55787;52.678;13.314;2023-12-20T14:40:39;4.77;95.94
68804;SHT31;55787;52.678;13.314;2023-12-20T14:43:07;4.80;95.15
68804;SHT31;55787;52.678;13.314;2023-12-20T14:45:35;4.81;95.78
68804;SHT31;55787;52.678;13.314;2023-12-20T14:48:05;4.79;96.18
68804;SHT31;55787;52.678;13.314;2023-12-20T14:50:31;4.73;96.14
68804;SHT31;55787;52.678;13.314;2023-12-20T14:52:58;4.74;95.59
68804;SHT31;55787;52.678;13.314;2023-12-20T14:55:26;4.70;95.93
68804;SHT31;55787;52.678;13.314;2023-12-20T14:57:55;4.70;96.70
68804;SHT31;55787;52.678;13.314;2023-12-20T15:00:21;4.56;96.39
68804;SHT31;55787;52.678;13.314;2023-12-20T15:02:48;4.63;96.98
68804;SHT31;55787;52.678;13.314;2023-12-20T15:05:15;4.59;97.12
68804;SHT31;55787;52.678;13.314;2023-12-20T15:07:43;4.52;97.50
68804;SHT31;55787;52.678;13.314;2023-12-20T15:10:10;4.50;97.89
68804;SHT31;55787;52.678;13.314;2023-12-20T15:12:37;4.50;98.21
68804;SHT31;55787;52.678;13.314;2023-12-20T15:15:05;4.53;98.46
68804;SHT31;55787;52.678;13.314;2023-12-20T15:17:32;4.53;98.64
68804;SHT31;55787;52.678;13.314;2023-12-20T15:19:59;4.53;98.84
68804;SHT31;55787;52.678;13.314;2023-12-20T15:22:26;4.45;98.60
68804;SHT31;55787;52.678;13.314;2023-12-20T15:24:53;4.49;98.87
68804;SHT31;55787;52.678;13.314;2023-12-20T15:27:21;4.46;98.77
68804;SHT31;55787;52.678;13.314;2023-12-20T15:29:51;4.39;99.07
68804;SHT31;55787;52.678;13.314;2023-12-20T15:32:17;4.38;98.71
68804;SHT31;55787;52.678;13.314;2023-12-20T15:34:47;4.28;98.82